sensor_id;sensor_type;location;lat;lon;timestamp;temperature;humidity
23233;DHT22;11785;49.500;8.288;2022-10-31T00:02:06;10.50;99.90
23233;DHT22;11785;49.500;8.288;2022-10-31T00:04:32;10.40;99.90
23233;DHT22;11785;49.500;8.288;2022-10-31T00:06:57;10.40;99.90
23233;DHT22;11785;49.500;8.288;2022-10-31T00:09:23;10.40;99.90
23233;DHT22;11785;49.500;8.288;2022-10-31T00:11:49;10.40;99.90
23233;DHT22;11785;49.500;8.288;2022-10-31T00:14:15;10.30;99.90
23233;DHT22;11785;49.500;8.288;2022-10-31T00:16:40;10.20;99.90
23233;DHT22;11785;49.500;8.288;2022-10-31T00:19:07;10.20;99.90
23233;DHT22;11785;49.500;8.288;2022-10-31T00:21:33;10.10;99.90
23233;DHT22;11785;49.500;8.288;2022-10-31T00:23:59;10.10;99.90
23233;DHT22;11785;49.500;8.288;2022-10-31T00:26:27;10.10;99.90
23233;DHT22;11785;49.500;8.288;2022-10-31T00:28:53;10.10;99.90
23233;DHT22;11785;49.500;8.288;2022-10-31T00:31:19;10.20;99.90
23233;DHT22;11785;49.500;8.288;2022-10-31T00:33:44;10.10;99.90
23233;DHT22;11785;49.500;8.288;2022-10-31T00:36:15;10.10;99.90
23233;DHT22;11785;49.500;8.288;2022-10-31T00:38:42;10.10;99.90
23233;DHT22;11785;49.500;8.288;2022-10-31T00:41:08;10.10;99.90
23233;DHT22;11785;49.500;8.288;2022-10-31T00:43:34;10.10;99.90
23233;DHT22;11785;49.500;8.288;2022-10-31T00:45:59;10.10;99.90
23233;DHT22;11785;49.500;8.288;2022-10-31T00:48:25;10.00;99.90
23233;DHT22;11785;49.500;8.288;2022-10-31T00:50:50;10.00;99.90
23233;DHT22;11785;49.500;8.288;2022-10-31T00:53:16;10.10;99.90
23233;DHT22;11785;49.500;8.288;2022-10-31T00:55:41;10.10;99.90
23233;DHT22;11785;49.500;8.288;2022-10-31T00:58:07;10.10;99.90
23233;DHT22;11785;49.500;8.288;2022-10-31T01:00:32;10.10;99.90
23233;DHT22;11785;49.500;8.288;2022-10-31T01:02:58;10.10;99.90
23233;DHT22;11785;49.500;8.288;2022-10-31T01:05:24;10.10;99.90
23233;DHT22;11785;49.500;8.288;2022-10-31T01:07:49;10.10;99.90
23233;DHT22;11785;49.500;8.288;2022-10-31T01:10:15;10.10;99.90
23233;DHT22;11785;49.500;8.288;2022-10-31T01:12:46;10.10;99.90
23233;DHT22;11785;49.500;8.288;2022-10-31T01:15:16;10.10;99.90
23233;DHT22;11785;49.500;8.288;2022-10-31T01:17:42;10.10;99.90
23233;DHT22;11785;49.500;8.288;2022-10-31T01:20:09;10.10;99.90
23233;DHT22;11785;49.500;8.288;2022-10-31T01:22:34;10.10;99.90
23233;DHT22;11785;49.500;8.288;2022-10-31T01:25:00;10.10;99.90
23233;DHT22;11785;49.500;8.288;2022-10-31T01:27:26;10.10;99.90
23233;DHT22;11785;49.500;8.288;2022-10-31T01:29:51;10.20;99.90
23233;DHT22;11785;49.500;8.288;2022-10-31T01:32:17;10.20;99.90
23233;DHT22;11785;49.500;8.288;2022-10-31T01:34:42;10.20;99.90
23233;DHT22;11785;49.500;8.288;2022-10-31T01:37:08;10.20;99.90
23233;DHT22;11785;49.500;8.288;2022-10-31T01:39:33;10.20;99.90
23233;DHT22;11785;49.500;8.288;2022-10-31T01:41:59;10.20;99.90
23233;DHT22;11785;49.500;8.288;2022-10-31T01:47:29;10.20;99.90
23233;DHT22;11785;49.500;8.288;2022-10-31T01:49:50;10.20;99.90
23233;DHT22;11785;49.500;8.288;2022-10-31T01:55:00;10.20;99.90
23233;DHT22;11785;49.500;8.288;2022-10-31T01:57:26;10.20;99.90
23233;DHT22;11785;49.500;8.288;2022-10-31T01:59:56;10.20;99.90
23233;DHT22;11785;49.500;8.288;2022-10-31T02:02:24;10.20;99.90
23233;DHT22;11785;49.500;8.288;2022-10-31T02:04:50;10.20;99.90
23233;DHT22;11785;49.500;8.288;2022-10-31T02:07:24;10.20;99.90
23233;DHT22;11785;49.500;8.288;2022-10-31T02:09:51;10.20;99.90
23233;DHT22;11785;49.500;8.288;2022-10-31T02:12:18;10.10;99.90
23233;DHT22;11785;49.500;8.288;2022-10-31T02:14:44;10.00;99.90
23233;DHT22;11785;49.500;8.288;2022-10-31T02:17:10;10.00;99.90
23233;DHT22;11785;49.500;8.288;2022-10-31T02:28:09;9.80;99.90
23233;DHT22;11785;49.500;8.288;2022-10-31T02:33:25;9.90;99.90
23233;DHT22;11785;49.500;8.288;2022-10-31T02:41:50;9.90;99.90
23233;DHT22;11785;49.500;8.288;2022-10-31T02:47:14;9.90;99.90
23233;DHT22;11785;49.500;8.288;2022-10-31T02:52:27;9.80;99.90
23233;DHT22;11785;49.500;8.288;2022-10-31T02:54:53;9.80;99.90
23233;DHT22;11785;49.500;8.288;2022-10-31T02:57:25;9.80;99.90
23233;DHT22;11785;49.500;8.288;2022-10-31T03:00:03;9.80;99.90
23233;DHT22;11785;49.500;8.288;2022-10-31T03:03:01;9.80;99.90
23233;DHT22;11785;49.500;8.288;2022-10-31T03:08:39;9.70;99.90
23233;DHT22;11785;49.500;8.288;2022-10-31T03:11:08;9.70;99.90
23233;DHT22;11785;49.500;8.288;2022-10-31T03:13:45;9.70;99.90
23233;DHT22;11785;49.500;8.288;2022-10-31T03:19:39;9.70;99.90
23233;DHT22;11785;49.500;8.288;2022-10-31T03:21:45;9.70;99.90
23233;DHT22;11785;49.500;8.288;2022-10-31T03:24:13;9.70;99.90
23233;DHT22;11785;49.500;8.288;2022-10-31T03:26:43;9.80;99.90
23233;DHT22;11785;49.500;8.288;2022-10-31T03:29:13;9.80;99.90
23233;DHT22;11785;49.500;8.288;2022-10-31T03:31:45;9.80;99.90
23233;DHT22;11785;49.500;8.288;2022-10-31T03:34:12;9.80;99.90
23233;DHT22;11785;49.500;8.288;2022-10-31T03:36:40;9.80;99.90
23233;DHT22;11785;49.500;8.288;2022-10-31T03:39:09;9.80;99.90
23233;DHT22;11785;49.500;8.288;2022-10-31T03:41:45;9.90;99.90
23233;DHT22;11785;49.500;8.288;2022-10-31T03:44:16;9.90;99.90
23233;DHT22;11785;49.500;8.288;2022-10-31T03:46:43;9.90;99.90
23233;DHT22;11785;49.500;8.288;2022-10-31T03:49:08;9.90;99.90
23233;DHT22;11785;49.500;8.288;2022-10-31T03:52:05;9.90;99.90
23233;DHT22;11785;49.500;8.288;2022-10-31T03:54:44;10.00;99.90
23233;DHT22;11785;49.500;8.288;2022-10-31T03:59:55;10.00;99.90
23233;DHT22;11785;49.500;8.288;2022-10-31T04:02:28;10.00;99.90
23233;DHT22;11785;49.500;8.288;2022-10-31T04:04:56;10.00;99.90
23233;DHT22;11785;49.500;8.288;2022-10-31T04:07:24;10.00;99.90
23233;DHT22;11785;49.500;8.288;2022-10-31T04:09:53;10.00;99.90
23233;DHT22;11785;49.500;8.288;2022-10-31T04:12:19;10.00;99.90
23233;DHT22;11785;49.500;8.288;2022-10-31T04:14:47;9.90;99.90
23233;DHT22;11785;49.500;8.288;2022-10-31T04:17:15;9.90;99.90
23233;DHT22;11785;49.500;8.288;2022-10-31T04:19:42;9.90;99.90
23233;DHT22;11785;49.500;8.288;2022-10-31T04:22:07;9.90;99.90
23233;DHT22;11785;49.500;8.288;2022-10-31T04:24:33;9.90;99.90
23233;DHT22;11785;49.500;8.288;2022-10-31T04:26:58;9.90;99.90
23233;DHT22;11785;49.500;8.288;2022-10-31T04:29:24;9.90;99.90
23233;DHT22;11785;49.500;8.288;2022-10-31T04:31:49;9.80;99.90
23233;DHT22;11785;49.500;8.288;2022-10-31T04:34:15;9.80;99.90
23233;DHT22;11785;49.500;8.288;2022-10-31T04:36:41;9.80;99.90
23233;DHT22;11785;49.500;8.288;2022-10-31T04:39:06;9.80;99.90
23233;DHT22;11785;49.500;8.288;2022-10-31T04:41:32;9.80;99.90
23233;DHT22;11785;49.500;8.288;2022-10-31T04:43:57;9.70;99.90
23233;DHT22;11785;49.500;8.288;2022-10-31T04:46:23;9.70;99.90
23233;DHT22;11785;49.500;8.288;2022-10-31T04:48:49;9.70;99.90
23233;DHT22;11785;49.500;8.288;2022-10-31T04:51:14;9.60;99.90
23233;DHT22;11785;49.500;8.288;2022-10-31T04:53:40;9.60;99.90
23233;DHT22;11785;49.500;8.288;2022-10-31T04:56:06;9.60;99.90
23233;DHT22;11785;49.500;8.288;2022-10-31T04:58:31;9.60;99.90
23233;DHT22;11785;49.500;8.288;2022-10-31T05:00:57;9.50;99.90
23233;DHT22;11785;49.500;8.288;2022-10-31T05:03:22;9.50;99.90
23233;DHT22;11785;49.500;8.288;2022-10-31T05:05:48;9.50;99.90
23233;DHT22;11785;49.500;8.288;2022-10-31T05:08:14;9.50;99.90
23233;DHT22;11785;49.500;8.288;2022-10-31T05:10:40;9.50;99.90
23233;DHT22;11785;49.500;8.288;2022-10-31T05:13:06;9.40;99.90
23233;DHT22;11785;49.500;8.288;2022-10-31T05:15:31;9.40;99.90
23233;DHT22;11785;49.500;8.288;2022-10-31T05:17:57;9.50;99.90
23233;DHT22;11785;49.500;8.288;2022-10-31T05:20:26;9.50;99.90
23233;DHT22;11785;49.500;8.288;2022-10-31T05:22:53;9.40;99.90
23233;DHT22;11785;49.500;8.288;2022-10-31T05:25:21;9.40;99.90
23233;DHT22;11785;49.500;8.288;2022-10-31T05:27:48;9.40;99.90
23233;DHT22;11785;49.500;8.288;2022-10-31T05:30:17;9.40;99.90
23233;DHT22;11785;49.500;8.288;2022-10-31T05:32:44;9.40;99.90
23233;DHT22;11785;49.500;8.288;2022-10-31T05:35:13;9.50;99.90
23233;DHT22;11785;49.500;8.288;2022-10-31T05:37:39;9.50;99.90
23233;DHT22;11785;49.500;8.288;2022-10-31T05:40:07;9.50;99.90
23233;DHT22;11785;49.500;8.288;2022-10-31T05:42:33;9.50;99.90
23233;DHT22;11785;49.500;8.288;2022-10-31T05:44:58;9.50;99.90
23233;DHT22;11785;49.500;8.288;2022-10-31T05:47:24;9.50;99.90
23233;DHT22;11785;49.500;8.288;2022-10-31T05:49:50;9.50;99.90
23233;DHT22;11785;49.500;8.288;2022-10-31T05:52:16;9.50;99.90
23233;DHT22;11785;49.500;8.288;2022-10-31T05:54:42;9.50;99.90
23233;DHT22;11785;49.500;8.288;2022-10-31T05:57:07;9.50;99.90
23233;DHT22;11785;49.500;8.288;2022-10-31T05:59:33;9.50;99.90
23233;DHT22;11785;49.500;8.288;2022-10-31T06:01:59;9.40;99.90
23233;DHT22;11785;49.500;8.288;2022-10-31T06:04:24;9.40;99.90
23233;DHT22;11785;49.500;8.288;2022-10-31T06:06:50;9.40;99.90
23233;DHT22;11785;49.500;8.288;2022-10-31T06:09:16;9.40;99.90
23233;DHT22;11785;49.500;8.288;2022-10-31T06:11:41;9.50;99.90
23233;DHT22;11785;49.500;8.288;2022-10-31T06:14:07;9.50;99.90
23233;DHT22;11785;49.500;8.288;2022-10-31T06:16:33;9.50;99.90
23233;DHT22;11785;49.500;8.288;2022-10-31T06:18:58;9.50;99.90
23233;DHT22;11785;49.500;8.288;2022-10-31T06:21:24;9.50;99.90
23233;DHT22;11785;49.500;8.288;2022-10-31T06:23:50;9.60;99.90
23233;DHT22;11785;49.500;8.288;2022-10-31T06:26:15;9.60;99.90
23233;DHT22;11785;49.500;8.288;2022-10-31T06:28:41;9.70;99.90
23233;DHT22;11785;49.500;8.288;2022-10-31T06:31:07;9.70;99.90
23233;DHT22;11785;49.500;8.288;2022-10-31T06:33:33;9.80;99.90
23233;DHT22;11785;49.500;8.288;2022-10-31T06:35:59;9.90;99.90
23233;DHT22;11785;49.500;8.288;2022-10-31T06:38:26;10.00;99.90
23233;DHT22;11785;49.500;8.288;2022-10-31T06:40:52;10.00;99.90
23233;DHT22;11785;49.500;8.288;2022-10-31T06:43:18;10.10;99.90
23233;DHT22;11785;49.500;8.288;2022-10-31T06:45:44;10.20;99.90
23233;DHT22;11785;49.500;8.288;2022-10-31T06:48:09;10.30;99.90
23233;DHT22;11785;49.500;8.288;2022-10-31T06:50:35;10.30;99.90
23233;DHT22;11785;49.500;8.288;2022-10-31T06:53:00;10.40;99.90
23233;DHT22;11785;49.500;8.288;2022-10-31T06:55:26;10.40;99.90
23233;DHT22;11785;49.500;8.288;2022-10-31T06:57:57;10.50;99.90
23233;DHT22;11785;49.500;8.288;2022-10-31T07:00:23;10.60;99.90
23233;DHT22;11785;49.500;8.288;2022-10-31T07:03:00;10.60;99.90
23233;DHT22;11785;49.500;8.288;2022-10-31T07:05:27;10.70;99.90
23233;DHT22;11785;49.500;8.288;2022-10-31T07:08:02;10.70;99.90
23233;DHT22;11785;49.500;8.288;2022-10-31T07:10:29;10.80;99.90
23233;DHT22;11785;49.500;8.288;2022-10-31T07:12:56;10.80;99.90
23233;DHT22;11785;49.500;8.288;2022-10-31T07:15:23;10.90;99.90
23233;DHT22;11785;49.500;8.288;2022-10-31T07:17:49;10.90;99.90
23233;DHT22;11785;49.500;8.288;2022-10-31T07:20:15;11.00;99.90
23233;DHT22;11785;49.500;8.288;2022-10-31T07:22:41;11.10;99.90
23233;DHT22;11785;49.500;8.288;2022-10-31T07:25:07;11.20;99.90
23233;DHT22;11785;49.500;8.288;2022-10-31T07:27:37;11.20;99.90
23233;DHT22;11785;49.500;8.288;2022-10-31T07:30:03;11.30;99.90
23233;DHT22;11785;49.500;8.288;2022-10-31T07:32:38;11.40;99.90
23233;DHT22;11785;49.500;8.288;2022-10-31T07:35:04;11.50;99.90
23233;DHT22;11785;49.500;8.288;2022-10-31T07:37:29;11.60;99.90
23233;DHT22;11785;49.500;8.288;2022-10-31T07:39:55;11.70;99.90
23233;DHT22;11785;49.500;8.288;2022-10-31T07:42:20;11.70;99.90
23233;DHT22;11785;49.500;8.288;2022-10-31T07:44:46;11.80;99.90
23233;DHT22;11785;49.500;8.288;2022-10-31T07:47:11;11.90;99.90
23233;DHT22;11785;49.500;8.288;2022-10-31T07:49:37;12.00;99.90
23233;DHT22;11785;49.500;8.288;2022-10-31T07:52:04;12.10;99.90
23233;DHT22;11785;49.500;8.288;2022-10-31T07:54:29;12.20;99.90
23233;DHT22;11785;49.500;8.288;2022-10-31T07:56:55;12.30;99.90
23233;DHT22;11785;49.500;8.288;2022-10-31T07:59:20;12.40;99.90
23233;DHT22;11785;49.500;8.288;2022-10-31T08:01:46;12.50;99.90
23233;DHT22;11785;49.500;8.288;2022-10-31T08:04:11;12.60;99.90
23233;DHT22;11785;49.500;8.288;2022-10-31T08:06:37;12.70;99.90
23233;DHT22;11785;49.500;8.288;2022-10-31T08:09:02;12.80;99.90
23233;DHT22;11785;49.500;8.288;2022-10-31T08:11:28;12.80;99.90
23233;DHT22;11785;49.500;8.288;2022-10-31T08:13:53;13.00;99.90
23233;DHT22;11785;49.500;8.288;2022-10-31T08:16:19;13.10;99.90
23233;DHT22;11785;49.500;8.288;2022-10-31T08:18:44;13.20;99.40
23233;DHT22;11785;49.500;8.288;2022-10-31T08:21:10;13.30;99.00
23233;DHT22;11785;49.500;8.288;2022-10-31T08:23:36;13.40;98.70
23233;DHT22;11785;49.500;8.288;2022-10-31T08:26:01;13.50;98.40
23233;DHT22;11785;49.500;8.288;2022-10-31T08:28:27;13.70;97.40
23233;DHT22;11785;49.500;8.288;2022-10-31T08:30:52;13.80;97.10
23233;DHT22;11785;49.500;8.288;2022-10-31T08:33:18;14.00;96.20
23233;DHT22;11785;49.500;8.288;2022-10-31T08:35:44;14.10;95.70
23233;DHT22;11785;49.500;8.288;2022-10-31T08:38:11;14.30;95.00
23233;DHT22;11785;49.500;8.288;2022-10-31T08:40:38;14.50;94.10
23233;DHT22;11785;49.500;8.288;2022-10-31T08:43:06;14.60;93.70
23233;DHT22;11785;49.500;8.288;2022-10-31T08:45:33;14.70;93.20
23233;DHT22;11785;49.500;8.288;2022-10-31T08:48:01;14.80;92.60
23233;DHT22;11785;49.500;8.288;2022-10-31T08:50:28;14.80;92.40
23233;DHT22;11785;49.500;8.288;2022-10-31T08:52:53;14.90;92.20
23233;DHT22;11785;49.500;8.288;2022-10-31T08:55:24;14.80;92.20
23233;DHT22;11785;49.500;8.288;2022-10-31T08:57:55;14.90;92.20
23233;DHT22;11785;49.500;8.288;2022-10-31T09:00:20;15.00;91.80
23233;DHT22;11785;49.500;8.288;2022-10-31T09:02:46;15.10;91.60
23233;DHT22;11785;49.500;8.288;2022-10-31T09:05:11;15.10;91.50
23233;DHT22;11785;49.500;8.288;2022-10-31T09:07:37;15.20;91.20
23233;DHT22;11785;49.500;8.288;2022-10-31T09:10:02;15.10;91.10
23233;DHT22;11785;49.500;8.288;2022-10-31T09:12:28;15.10;91.10
23233;DHT22;11785;49.500;8.288;2022-10-31T09:14:54;15.10;91.20
23233;DHT22;11785;49.500;8.288;2022-10-31T09:17:19;15.10;91.10
23233;DHT22;11785;49.500;8.288;2022-10-31T09:19:45;15.10;91.10
23233;DHT22;11785;49.500;8.288;2022-10-31T09:22:10;15.20;90.80
23233;DHT22;11785;49.500;8.288;2022-10-31T09:24:36;15.30;90.30
23233;DHT22;11785;49.500;8.288;2022-10-31T09:27:01;15.30;90.30
23233;DHT22;11785;49.500;8.288;2022-10-31T09:29:27;15.50;88.90
23233;DHT22;11785;49.500;8.288;2022-10-31T09:31:52;15.60;88.30
23233;DHT22;11785;49.500;8.288;2022-10-31T09:34:18;15.80;86.80
23233;DHT22;11785;49.500;8.288;2022-10-31T09:36:43;15.80;86.30
23233;DHT22;11785;49.500;8.288;2022-10-31T09:39:11;15.80;86.60
23233;DHT22;11785;49.500;8.288;2022-10-31T09:50:22;16.10;84.50
23233;DHT22;11785;49.500;8.288;2022-10-31T09:53:02;16.10;84.10
23233;DHT22;11785;49.500;8.288;2022-10-31T09:55:40;16.40;81.80
23233;DHT22;11785;49.500;8.288;2022-10-31T09:58:22;16.50;80.80
23233;DHT22;11785;49.500;8.288;2022-10-31T10:00:48;16.70;79.00
23233;DHT22;11785;49.500;8.288;2022-10-31T10:03:39;16.80;77.60
23233;DHT22;11785;49.500;8.288;2022-10-31T10:06:23;16.80;77.70
23233;DHT22;11785;49.500;8.288;2022-10-31T10:08:50;17.00;75.80
23233;DHT22;11785;49.500;8.288;2022-10-31T10:19:44;17.90;68.50
23233;DHT22;11785;49.500;8.288;2022-10-31T10:30:15;18.00;66.60
23233;DHT22;11785;49.500;8.288;2022-10-31T10:32:53;18.10;65.80
23233;DHT22;11785;49.500;8.288;2022-10-31T10:35:32;18.10;65.80
23233;DHT22;11785;49.500;8.288;2022-10-31T10:38:04;18.20;65.40
23233;DHT22;11785;49.500;8.288;2022-10-31T10:40:35;18.40;63.80
23233;DHT22;11785;49.500;8.288;2022-10-31T10:43:24;18.30;63.00
23233;DHT22;11785;49.500;8.288;2022-10-31T10:48:51;18.70;60.50
23233;DHT22;11785;49.500;8.288;2022-10-31T10:57:12;19.00;59.90
23233;DHT22;11785;49.500;8.288;2022-10-31T10:59:40;19.20;59.80
23233;DHT22;11785;49.500;8.288;2022-10-31T11:02:19;19.40;59.80
23233;DHT22;11785;49.500;8.288;2022-10-31T11:04:50;19.50;59.80
23233;DHT22;11785;49.500;8.288;2022-10-31T11:07:17;19.50;59.70
23233;DHT22;11785;49.500;8.288;2022-10-31T11:09:42;19.50;59.70
23233;DHT22;11785;49.500;8.288;2022-10-31T11:12:32;19.60;59.70
23233;DHT22;11785;49.500;8.288;2022-10-31T11:14:58;19.70;59.60
23233;DHT22;11785;49.500;8.288;2022-10-31T11:17:38;19.90;59.60
23233;DHT22;11785;49.500;8.288;2022-10-31T11:22:41;19.80;59.60
23233;DHT22;11785;49.500;8.288;2022-10-31T11:27:59;20.10;59.50
23233;DHT22;11785;49.500;8.288;2022-10-31T11:30:25;20.00;59.60
23233;DHT22;11785;49.500;8.288;2022-10-31T11:32:51;19.80;59.60
23233;DHT22;11785;49.500;8.288;2022-10-31T11:35:19;19.60;59.70
23233;DHT22;11785;49.500;8.288;2022-10-31T11:37:47;19.40;59.80
23233;DHT22;11785;49.500;8.288;2022-10-31T11:40:21;19.40;59.70
23233;DHT22;11785;49.500;8.288;2022-10-31T11:42:48;19.50;59.70
23233;DHT22;11785;49.500;8.288;2022-10-31T11:47:43;19.30;59.70
23233;DHT22;11785;49.500;8.288;2022-10-31T11:50:12;19.40;59.70
23233;DHT22;11785;49.500;8.288;2022-10-31T11:52:43;19.60;59.70
23233;DHT22;11785;49.500;8.288;2022-10-31T11:57:48;19.90;59.60
23233;DHT22;11785;49.500;8.288;2022-10-31T12:00:22;19.80;59.60
23233;DHT22;11785;49.500;8.288;2022-10-31T12:02:48;19.90;59.60
23233;DHT22;11785;49.500;8.288;2022-10-31T12:05:26;19.90;59.60
23233;DHT22;11785;49.500;8.288;2022-10-31T12:07:56;19.90;59.60
23233;DHT22;11785;49.500;8.288;2022-10-31T12:10:27;19.90;59.60
23233;DHT22;11785;49.500;8.288;2022-10-31T12:22:05;19.60;59.70
23233;DHT22;11785;49.500;8.288;2022-10-31T12:24:57;19.60;59.70
23233;DHT22;11785;49.500;8.288;2022-10-31T12:32:41;19.20;59.80
23233;DHT22;11785;49.500;8.288;2022-10-31T12:35:33;19.00;59.90
23233;DHT22;11785;49.500;8.288;2022-10-31T12:38:12;18.90;59.90
23233;DHT22;11785;49.500;8.288;2022-10-31T12:40:59;18.90;59.90
23233;DHT22;11785;49.500;8.288;2022-10-31T12:45:59;18.90;59.90
23233;DHT22;11785;49.500;8.288;2022-10-31T12:54:53;18.80;59.90
23233;DHT22;11785;49.500;8.288;2022-10-31T12:57:29;18.70;60.60
23233;DHT22;11785;49.500;8.288;2022-10-31T13:00:26;18.70;60.30
23233;DHT22;11785;49.500;8.288;2022-10-31T13:02:57;18.80;59.90
23233;DHT22;11785;49.500;8.288;2022-10-31T13:08:17;19.00;59.90
23233;DHT22;11785;49.500;8.288;2022-10-31T13:10:50;19.00;59.90
23233;DHT22;11785;49.500;8.288;2022-10-31T13:13:21;19.00;59.90
23233;DHT22;11785;49.500;8.288;2022-10-31T13:15:56;18.90;59.90
23233;DHT22;11785;49.500;8.288;2022-10-31T13:18:50;18.90;59.90
23233;DHT22;11785;49.500;8.288;2022-10-31T13:21:26;18.90;60.00
23233;DHT22;11785;49.500;8.288;2022-10-31T13:23:52;18.90;59.90
23233;DHT22;11785;49.500;8.288;2022-10-31T13:26:37;19.00;59.90
23233;DHT22;11785;49.500;8.288;2022-10-31T13:29:18;19.00;59.90
23233;DHT22;11785;49.500;8.288;2022-10-31T13:31:45;19.20;59.90
23233;DHT22;11785;49.500;8.288;2022-10-31T13:37:10;23.70;58.60
23233;DHT22;11785;49.500;8.288;2022-10-31T13:42:35;28.30;44.80
23233;DHT22;11785;49.500;8.288;2022-10-31T13:45:17;28.80;45.00
23233;DHT22;11785;49.500;8.288;2022-10-31T13:47:54;29.90;45.60
23233;DHT22;11785;49.500;8.288;2022-10-31T13:50:28;28.10;45.00
23233;DHT22;11785;49.500;8.288;2022-10-31T13:56:01;28.00;45.00
23233;DHT22;11785;49.500;8.288;2022-10-31T13:58:31;27.80;44.90
23233;DHT22;11785;49.500;8.288;2022-10-31T14:01:16;29.50;45.50
23233;DHT22;11785;49.500;8.288;2022-10-31T14:03:55;31.00;46.10
23233;DHT22;11785;49.500;8.288;2022-10-31T14:06:23;31.80;46.40
23233;DHT22;11785;49.500;8.288;2022-10-31T14:08:59;32.40;46.70
23233;DHT22;11785;49.500;8.288;2022-10-31T14:11:26;31.90;46.60
23233;DHT22;11785;49.500;8.288;2022-10-31T14:13:55;32.10;46.70
23233;DHT22;11785;49.500;8.288;2022-10-31T14:16:27;31.70;46.60
23233;DHT22;11785;49.500;8.288;2022-10-31T14:19:17;29.50;45.90
23233;DHT22;11785;49.500;8.288;2022-10-31T14:21:46;26.60;44.90
23233;DHT22;11785;49.500;8.288;2022-10-31T14:26:54;22.90;58.10
23233;DHT22;11785;49.500;8.288;2022-10-31T14:29:23;22.10;58.40
23233;DHT22;11785;49.500;8.288;2022-10-31T14:32:19;21.50;58.60
23233;DHT22;11785;49.500;8.288;2022-10-31T14:34:58;20.90;58.80
23233;DHT22;11785;49.500;8.288;2022-10-31T14:40:35;20.50;59.00
23233;DHT22;11785;49.500;8.288;2022-10-31T14:46:07;20.10;59.10
23233;DHT22;11785;49.500;8.288;2022-10-31T14:48:58;19.60;59.20
23233;DHT22;11785;49.500;8.288;2022-10-31T14:51:39;19.20;59.40
23233;DHT22;11785;49.500;8.288;2022-10-31T14:54:10;18.80;59.50
23233;DHT22;11785;49.500;8.288;2022-10-31T14:56:53;18.70;59.60
23233;DHT22;11785;49.500;8.288;2022-10-31T14:59:23;18.50;59.70
23233;DHT22;11785;49.500;8.288;2022-10-31T15:01:59;18.30;59.80
23233;DHT22;11785;49.500;8.288;2022-10-31T15:04:31;18.20;59.80
23233;DHT22;11785;49.500;8.288;2022-10-31T15:07:11;18.00;59.90
23233;DHT22;11785;49.500;8.288;2022-10-31T15:09:39;17.90;61.10
23233;DHT22;11785;49.500;8.288;2022-10-31T15:12:35;17.70;62.60
23233;DHT22;11785;49.500;8.288;2022-10-31T15:15:23;17.60;64.30
23233;DHT22;11785;49.500;8.288;2022-10-31T15:17:58;17.50;66.20
23233;DHT22;11785;49.500;8.288;2022-10-31T15:20:26;17.40;67.80
23233;DHT22;11785;49.500;8.288;2022-10-31T15:22:55;17.40;67.70
23233;DHT22;11785;49.500;8.288;2022-10-31T15:25:24;17.30;68.30
23233;DHT22;11785;49.500;8.288;2022-10-31T15:27:51;17.30;68.40
23233;DHT22;11785;49.500;8.288;2022-10-31T15:30:19;17.30;69.20
23233;DHT22;11785;49.500;8.288;2022-10-31T15:32:46;17.20;70.60
23233;DHT22;11785;49.500;8.288;2022-10-31T15:35:21;17.20;71.10
23233;DHT22;11785;49.500;8.288;2022-10-31T15:37:47;17.30;70.60
23233;DHT22;11785;49.500;8.288;2022-10-31T15:40:18;17.30;71.30
23233;DHT22;11785;49.500;8.288;2022-10-31T15:43:00;17.30;72.20
23233;DHT22;11785;49.500;8.288;2022-10-31T15:45:28;17.30;72.30
23233;DHT22;11785;49.500;8.288;2022-10-31T15:47:58;17.20;72.90
23233;DHT22;11785;49.500;8.288;2022-10-31T15:50:36;17.10;73.70
23233;DHT22;11785;49.500;8.288;2022-10-31T15:53:04;16.90;74.90
23233;DHT22;11785;49.500;8.288;2022-10-31T15:55:35;16.80;75.70
23233;DHT22;11785;49.500;8.288;2022-10-31T15:58:09;16.70;76.60
23233;DHT22;11785;49.500;8.288;2022-10-31T16:00:35;16.50;78.10
23233;DHT22;11785;49.500;8.288;2022-10-31T16:05:51;16.10;82.90
23233;DHT22;11785;49.500;8.288;2022-10-31T16:10:57;15.90;86.50
23233;DHT22;11785;49.500;8.288;2022-10-31T16:13:53;15.80;87.20
23233;DHT22;11785;49.500;8.288;2022-10-31T16:16:19;15.70;88.40
23233;DHT22;11785;49.500;8.288;2022-10-31T16:18:49;15.70;89.30
23233;DHT22;11785;49.500;8.288;2022-10-31T16:21:15;15.70;89.70
23233;DHT22;11785;49.500;8.288;2022-10-31T16:23:53;15.60;90.00
23233;DHT22;11785;49.500;8.288;2022-10-31T16:26:20;15.60;89.90
23233;DHT22;11785;49.500;8.288;2022-10-31T16:28:57;15.50;90.20
23233;DHT22;11785;49.500;8.288;2022-10-31T16:31:28;15.40;90.60
23233;DHT22;11785;49.500;8.288;2022-10-31T16:34:09;15.40;90.70
23233;DHT22;11785;49.500;8.288;2022-10-31T16:36:36;15.30;91.20
23233;DHT22;11785;49.500;8.288;2022-10-31T16:39:04;15.30;91.40
23233;DHT22;11785;49.500;8.288;2022-10-31T16:41:37;15.30;91.50
23233;DHT22;11785;49.500;8.288;2022-10-31T16:44:05;15.20;92.00
23233;DHT22;11785;49.500;8.288;2022-10-31T16:46:32;15.20;92.20
23233;DHT22;11785;49.500;8.288;2022-10-31T16:48:57;15.20;92.20
23233;DHT22;11785;49.500;8.288;2022-10-31T16:51:23;15.10;92.50
23233;DHT22;11785;49.500;8.288;2022-10-31T16:53:51;15.20;92.40
23233;DHT22;11785;49.500;8.288;2022-10-31T16:56:27;15.20;92.30
23233;DHT22;11785;49.500;8.288;2022-10-31T16:58:53;15.10;92.50
23233;DHT22;11785;49.500;8.288;2022-10-31T17:01:18;15.00;93.10
23233;DHT22;11785;49.500;8.288;2022-10-31T17:03:44;14.90;93.70
23233;DHT22;11785;49.500;8.288;2022-10-31T17:06:13;14.80;93.90
23233;DHT22;11785;49.500;8.288;2022-10-31T17:08:39;14.70;94.40
23233;DHT22;11785;49.500;8.288;2022-10-31T17:11:05;14.60;95.00
23233;DHT22;11785;49.500;8.288;2022-10-31T17:13:33;14.50;95.40
23233;DHT22;11785;49.500;8.288;2022-10-31T17:16:00;14.40;95.90
23233;DHT22;11785;49.500;8.288;2022-10-31T17:18:26;14.40;95.90
23233;DHT22;11785;49.500;8.288;2022-10-31T17:20:57;14.30;96.10
23233;DHT22;11785;49.500;8.288;2022-10-31T17:23:24;14.10;96.70
23233;DHT22;11785;49.500;8.288;2022-10-31T17:25:49;14.00;97.10
23233;DHT22;11785;49.500;8.288;2022-10-31T17:28:15;13.90;97.50
23233;DHT22;11785;49.500;8.288;2022-10-31T17:30:41;13.80;97.90
23233;DHT22;11785;49.500;8.288;2022-10-31T17:33:14;13.70;98.20
23233;DHT22;11785;49.500;8.288;2022-10-31T17:35:43;13.70;98.40
23233;DHT22;11785;49.500;8.288;2022-10-31T17:38:12;13.70;98.50
23233;DHT22;11785;49.500;8.288;2022-10-31T17:40:38;13.60;98.80
23233;DHT22;11785;49.500;8.288;2022-10-31T17:43:04;13.60;99.00
23233;DHT22;11785;49.500;8.288;2022-10-31T17:45:30;13.60;99.00
23233;DHT22;11785;49.500;8.288;2022-10-31T17:47:56;13.60;99.10
23233;DHT22;11785;49.500;8.288;2022-10-31T17:50:24;13.60;99.20
23233;DHT22;11785;49.500;8.288;2022-10-31T17:52:50;13.50;99.50
23233;DHT22;11785;49.500;8.288;2022-10-31T17:55:16;13.50;99.60
23233;DHT22;11785;49.500;8.288;2022-10-31T17:57:42;13.60;99.40
23233;DHT22;11785;49.500;8.288;2022-10-31T18:00:13;13.60;99.40